sensor_id;sensor_type;location;lat;lon;timestamp;pressure;altitude;pressure_sealevel;temperature
24586;BMP280;12743;52.262;6.172;2022-12-18T00:01:17;101698.22;;;-3.85
24586;BMP280;12743;52.262;6.172;2022-12-18T00:03:44;101686.38;;;-3.67
24586;BMP280;12743;52.262;6.172;2022-12-18T00:06:13;101697.94;;;-4.10
24586;BMP280;12743;52.262;6.172;2022-12-18T00:08:43;101658.72;;;-3.91
24586;BMP280;12743;52.262;6.172;2022-12-18T00:11:14;101685.00;;;-3.63
24586;BMP280;12743;52.262;6.172;2022-12-18T00:13:41;101688.34;;;-3.62
24586;BMP280;12743;52.262;6.172;2022-12-18T00:16:14;101689.53;;;-3.71
24586;BMP280;12743;52.262;6.172;2022-12-18T00:18:42;101699.78;;;-3.52
24586;BMP280;12743;52.262;6.172;2022-12-18T00:21:10;101717.50;;;-4.09
24586;BMP280;12743;52.262;6.172;2022-12-18T00:23:37;101703.63;;;-4.28
24586;BMP280;12743;52.262;6.172;2022-12-18T00:26:11;101660.47;;;-4.05
24586;BMP280;12743;52.262;6.172;2022-12-18T00:28:42;101683.00;;;-3.80
24586;BMP280;12743;52.262;6.172;2022-12-18T00:31:11;101657.13;;;-4.05
24586;BMP280;12743;52.262;6.172;2022-12-18T00:33:38;101689.88;;;-4.01
24586;BMP280;12743;52.262;6.172;2022-12-18T00:36:23;101702.69;;;-4.01
24586;BMP280;12743;52.262;6.172;2022-12-18T00:38:52;101686.50;;;-4.08
24586;BMP280;12743;52.262;6.172;2022-12-18T00:41:19;101701.91;;;-4.01
24586;BMP280;12743;52.262;6.172;2022-12-18T00:44:07;101694.41;;;-4.09
24586;BMP280;12743;52.262;6.172;2022-12-18T00:46:34;101659.84;;;-4.20
24586;BMP280;12743;52.262;6.172;2022-12-18T00:49:00;101702.88;;;-4.15
24586;BMP280;12743;52.262;6.172;2022-12-18T00:51:27;101696.13;;;-4.16
24586;BMP280;12743;52.262;6.172;2022-12-18T00:53:53;101680.47;;;-4.41
24586;BMP280;12743;52.262;6.172;2022-12-18T00:56:20;101695.94;;;-4.21
24586;BMP280;12743;52.262;6.172;2022-12-18T00:58:47;101705.00;;;-4.32
24586;BMP280;12743;52.262;6.172;2022-12-18T01:01:13;101698.66;;;-4.36
24586;BMP280;12743;52.262;6.172;2022-12-18T01:03:40;101714.78;;;-4.49
24586;BMP280;12743;52.262;6.172;2022-12-18T01:06:10;101716.69;;;-4.57
24586;BMP280;12743;52.262;6.172;2022-12-18T01:08:38;101719.03;;;-4.69
24586;BMP280;12743;52.262;6.172;2022-12-18T01:11:10;101720.88;;;-4.84
24586;BMP280;12743;52.262;6.172;2022-12-18T01:13:38;101729.22;;;-4.75
24586;BMP280;12743;52.262;6.172;2022-12-18T01:16:06;101724.75;;;-4.60
24586;BMP280;12743;52.262;6.172;2022-12-18T01:18:34;101700.78;;;-4.53
24586;BMP280;12743;52.262;6.172;2022-12-18T01:21:05;101700.78;;;-4.53
24586;BMP280;12743;52.262;6.172;2022-12-18T01:23:32;101703.09;;;-4.58
24586;BMP280;12743;52.262;6.172;2022-12-18T01:26:05;101707.09;;;-4.49
24586;BMP280;12743;52.262;6.172;2022-12-18T01:28:34;101718.47;;;-4.64
24586;BMP280;12743;52.262;6.172;2022-12-18T01:31:21;101716.75;;;-4.44
24586;BMP280;12743;52.262;6.172;2022-12-18T01:33:49;101706.25;;;-4.56
24586;BMP280;12743;52.262;6.172;2022-12-18T01:36:37;101724.25;;;-4.49
24586;BMP280;12743;52.262;6.172;2022-12-18T01:39:07;101719.91;;;-4.49
24586;BMP280;12743;52.262;6.172;2022-12-18T01:41:34;101724.38;;;-4.57
24586;BMP280;12743;52.262;6.172;2022-12-18T01:47:50;101724.50;;;-4.31
24586;BMP280;12743;52.262;6.172;2022-12-18T01:50:20;101746.03;;;-4.32
24586;BMP280;12743;52.262;6.172;2022-12-18T01:52:53;101744.66;;;-4.34
24586;BMP280;12743;52.262;6.172;2022-12-18T01:55:24;101739.06;;;-4.44
24586;BMP280;12743;52.262;6.172;2022-12-18T01:57:55;101743.97;;;-4.50
24586;BMP280;12743;52.262;6.172;2022-12-18T02:00:23;101769.31;;;-4.68
24586;BMP280;12743;52.262;6.172;2022-12-18T02:02:50;101767.50;;;-4.67
24586;BMP280;12743;52.262;6.172;2022-12-18T02:05:25;101762.28;;;-4.53
24586;BMP280;12743;52.262;6.172;2022-12-18T02:08:09;101772.06;;;-4.63
24586;BMP280;12743;52.262;6.172;2022-12-18T02:10:46;101774.13;;;-4.52
24586;BMP280;12743;52.262;6.172;2022-12-18T02:13:45;101776.81;;;-4.60
24586;BMP280;12743;52.262;6.172;2022-12-18T02:16:21;101771.97;;;-4.48
24586;BMP280;12743;52.262;6.172;2022-12-18T02:18:55;101761.13;;;-4.43
24586;BMP280;12743;52.262;6.172;2022-12-18T02:21:37;101760.34;;;-4.37
24586;BMP280;12743;52.262;6.172;2022-12-18T02:27:03;101751.34;;;-4.33
24586;BMP280;12743;52.262;6.172;2022-12-18T02:29:39;101745.16;;;-4.46
24586;BMP280;12743;52.262;6.172;2022-12-18T02:32:11;101757.13;;;-4.87
24586;BMP280;12743;52.262;6.172;2022-12-18T02:34:40;101774.22;;;-4.66
24586;BMP280;12743;52.262;6.172;2022-12-18T02:37:15;101764.38;;;-4.63
24586;BMP280;12743;52.262;6.172;2022-12-18T02:39:44;101778.03;;;-4.56
24586;BMP280;12743;52.262;6.172;2022-12-18T02:42:14;101794.13;;;-4.68
24586;BMP280;12743;52.262;6.172;2022-12-18T02:44:50;101787.06;;;-4.60
24586;BMP280;12743;52.262;6.172;2022-12-18T02:47:24;101796.72;;;-4.62
24586;BMP280;12743;52.262;6.172;2022-12-18T02:52:53;101717.50;;;-4.91
24586;BMP280;12743;52.262;6.172;2022-12-18T02:55:31;101747.03;;;-4.95
24586;BMP280;12743;52.262;6.172;2022-12-18T02:58:17;101758.75;;;-4.52
24586;BMP280;12743;52.262;6.172;2022-12-18T03:01:03;101757.38;;;-4.41
24586;BMP280;12743;52.262;6.172;2022-12-18T03:03:38;101761.34;;;-4.45
24586;BMP280;12743;52.262;6.172;2022-12-18T03:06:10;101758.81;;;-4.38
24586;BMP280;12743;52.262;6.172;2022-12-18T03:08:47;101773.94;;;-4.50
24586;BMP280;12743;52.262;6.172;2022-12-18T03:11:16;101772.06;;;-4.63
24586;BMP280;12743;52.262;6.172;2022-12-18T03:14:06;101775.69;;;-4.85
24586;BMP280;12743;52.262;6.172;2022-12-18T03:16:34;101740.56;;;-4.91
24586;BMP280;12743;52.262;6.172;2022-12-18T03:19:15;101772.59;;;-5.02
24586;BMP280;12743;52.262;6.172;2022-12-18T03:21:45;101774.94;;;-5.28
24586;BMP280;12743;52.262;6.172;2022-12-18T03:24:15;101756.91;;;-4.92
24586;BMP280;12743;52.262;6.172;2022-12-18T03:26:47;101769.19;;;-4.87
24586;BMP280;12743;52.262;6.172;2022-12-18T03:29:51;101771.53;;;-5.07
24586;BMP280;12743;52.262;6.172;2022-12-18T03:32:30;101755.00;;;-4.83
24586;BMP280;12743;52.262;6.172;2022-12-18T03:35:01;101748.47;;;-4.86
24586;BMP280;12743;52.262;6.172;2022-12-18T03:37:34;101725.44;;;-4.86
24586;BMP280;12743;52.262;6.172;2022-12-18T03:40:02;101742.84;;;-4.75
24586;BMP280;12743;52.262;6.172;2022-12-18T03:42:46;101750.69;;;-4.76
24586;BMP280;12743;52.262;6.172;2022-12-18T03:45:38;101752.41;;;-4.90
24586;BMP280;12743;52.262;6.172;2022-12-18T03:50:49;101746.91;;;-4.80
24586;BMP280;12743;52.262;6.172;2022-12-18T03:53:29;101731.47;;;-4.66
24586;BMP280;12743;52.262;6.172;2022-12-18T03:55:59;101737.75;;;-4.68
24586;BMP280;12743;52.262;6.172;2022-12-18T03:58:32;101738.91;;;-4.71
24586;BMP280;12743;52.262;6.172;2022-12-18T04:01:14;101743.47;;;-4.66
24586;BMP280;12743;52.262;6.172;2022-12-18T04:03:44;101732.03;;;-4.64
24586;BMP280;12743;52.262;6.172;2022-12-18T04:06:12;101753.63;;;-4.79
24586;BMP280;12743;52.262;6.172;2022-12-18T04:08:41;101743.84;;;-4.69
24586;BMP280;12743;52.262;6.172;2022-12-18T04:11:11;101738.28;;;-4.73
24586;BMP280;12743;52.262;6.172;2022-12-18T04:13:38;101745.38;;;-4.81
24586;BMP280;12743;52.262;6.172;2022-12-18T04:16:10;101732.56;;;-4.75
24586;BMP280;12743;52.262;6.172;2022-12-18T04:18:40;101727.56;;;-4.89
24586;BMP280;12743;52.262;6.172;2022-12-18T04:21:07;101729.97;;;-4.88
24586;BMP280;12743;52.262;6.172;2022-12-18T04:23:33;101726.50;;;-5.02
24586;BMP280;12743;52.262;6.172;2022-12-18T04:26:01;101735.56;;;-4.99
24586;BMP280;12743;52.262;6.172;2022-12-18T04:28:42;101747.59;;;-5.00
24586;BMP280;12743;52.262;6.172;2022-12-18T04:31:09;101740.53;;;-4.98
24586;BMP280;12743;52.262;6.172;2022-12-18T04:33:36;101748.97;;;-4.97
24586;BMP280;12743;52.262;6.172;2022-12-18T04:36:03;101762.16;;;-5.00
24586;BMP280;12743;52.262;6.172;2022-12-18T04:38:30;101754.34;;;-4.92
24586;BMP280;12743;52.262;6.172;2022-12-18T04:41:03;101737.66;;;-4.88
24586;BMP280;12743;52.262;6.172;2022-12-18T04:43:30;101744.84;;;-4.98
24586;BMP280;12743;52.262;6.172;2022-12-18T04:46:07;101731.25;;;-4.99
24586;BMP280;12743;52.262;6.172;2022-12-18T04:48:34;101746.00;;;-5.01
24586;BMP280;12743;52.262;6.172;2022-12-18T04:51:02;101747.22;;;-4.97
24586;BMP280;12743;52.262;6.172;2022-12-18T04:53:28;101734.69;;;-4.85
24586;BMP280;12743;52.262;6.172;2022-12-18T04:56:05;101741.53;;;-4.92
24586;BMP280;12743;52.262;6.172;2022-12-18T04:58:32;101718.41;;;-5.05
24586;BMP280;12743;52.262;6.172;2022-12-18T05:00:59;101716.44;;;-5.03
24586;BMP280;12743;52.262;6.172;2022-12-18T05:03:26;101741.03;;;-4.81
24586;BMP280;12743;52.262;6.172;2022-12-18T05:05:53;101747.91;;;-4.81
24586;BMP280;12743;52.262;6.172;2022-12-18T05:08:19;101756.88;;;-4.99
24586;BMP280;12743;52.262;6.172;2022-12-18T05:10:46;101763.38;;;-4.96
24586;BMP280;12743;52.262;6.172;2022-12-18T05:13:12;101755.91;;;-4.98
24586;BMP280;12743;52.262;6.172;2022-12-18T05:15:39;101707.31;;;-5.12
24586;BMP280;12743;52.262;6.172;2022-12-18T05:18:05;101747.44;;;-4.92
24586;BMP280;12743;52.262;6.172;2022-12-18T05:20:32;101739.25;;;-5.08
24586;BMP280;12743;52.262;6.172;2022-12-18T05:22:58;101750.81;;;-4.91
24586;BMP280;12743;52.262;6.172;2022-12-18T05:25:26;101752.81;;;-4.86
24586;BMP280;12743;52.262;6.172;2022-12-18T05:27:52;101745.06;;;-4.93
24586;BMP280;12743;52.262;6.172;2022-12-18T05:30:19;101770.34;;;-4.83
24586;BMP280;12743;52.262;6.172;2022-12-18T05:32:45;101778.56;;;-4.95
24586;BMP280;12743;52.262;6.172;2022-12-18T05:35:12;101780.34;;;-4.95
24586;BMP280;12743;52.262;6.172;2022-12-18T05:37:38;101786.84;;;-4.93
24586;BMP280;12743;52.262;6.172;2022-12-18T05:40:09;101783.75;;;-4.88
24586;BMP280;12743;52.262;6.172;2022-12-18T05:42:36;101781.38;;;-4.89
24586;BMP280;12743;52.262;6.172;2022-12-18T05:45:03;101798.22;;;-5.02
24586;BMP280;12743;52.262;6.172;2022-12-18T05:47:30;101799.63;;;-4.99
24586;BMP280;12743;52.262;6.172;2022-12-18T05:49:56;101796.09;;;-4.98
24586;BMP280;12743;52.262;6.172;2022-12-18T05:52:23;101809.03;;;-5.06
24586;BMP280;12743;52.262;6.172;2022-12-18T05:54:49;101813.66;;;-5.16
24586;BMP280;12743;52.262;6.172;2022-12-18T05:57:16;101808.53;;;-5.16
24586;BMP280;12743;52.262;6.172;2022-12-18T05:59:42;101815.91;;;-5.28
24586;BMP280;12743;52.262;6.172;2022-12-18T06:02:09;101813.88;;;-5.32
24586;BMP280;12743;52.262;6.172;2022-12-18T06:04:36;101816.63;;;-5.13
24586;BMP280;12743;52.262;6.172;2022-12-18T06:07:02;101810.50;;;-5.18
24586;BMP280;12743;52.262;6.172;2022-12-18T06:09:29;101793.66;;;-5.06
24586;BMP280;12743;52.262;6.172;2022-12-18T06:11:55;101792.78;;;-5.13
24586;BMP280;12743;52.262;6.172;2022-12-18T06:14:22;101785.84;;;-5.19
24586;BMP280;12743;52.262;6.172;2022-12-18T06:16:50;101789.09;;;-5.11
24586;BMP280;12743;52.262;6.172;2022-12-18T06:19:17;101760.63;;;-5.22
24586;BMP280;12743;52.262;6.172;2022-12-18T06:21:44;101761.09;;;-5.12
24586;BMP280;12743;52.262;6.172;2022-12-18T06:24:10;101775.63;;;-5.19
24586;BMP280;12743;52.262;6.172;2022-12-18T06:26:38;101767.97;;;-5.13
24586;BMP280;12743;52.262;6.172;2022-12-18T06:29:05;101773.31;;;-5.14
24586;BMP280;12743;52.262;6.172;2022-12-18T06:31:31;101761.94;;;-5.26
24586;BMP280;12743;52.262;6.172;2022-12-18T06:34:02;101762.53;;;-5.31
24586;BMP280;12743;52.262;6.172;2022-12-18T06:36:29;101727.78;;;-5.40
24586;BMP280;12743;52.262;6.172;2022-12-18T06:38:56;101764.88;;;-5.29
24586;BMP280;12743;52.262;6.172;2022-12-18T06:41:22;101761.09;;;-5.12
24586;BMP280;12743;52.262;6.172;2022-12-18T06:43:49;101767.00;;;-5.12
24586;BMP280;12743;52.262;6.172;2022-12-18T06:46:16;101754.63;;;-5.08
24586;BMP280;12743;52.262;6.172;2022-12-18T06:48:42;101749.59;;;-5.23
24586;BMP280;12743;52.262;6.172;2022-12-18T06:51:15;101755.50;;;-5.22
24586;BMP280;12743;52.262;6.172;2022-12-18T06:53:42;101742.69;;;-5.22
24586;BMP280;12743;52.262;6.172;2022-12-18T06:56:09;101742.69;;;-5.22
24586;BMP280;12743;52.262;6.172;2022-12-18T06:58:37;101740.72;;;-5.20
24586;BMP280;12743;52.262;6.172;2022-12-18T07:01:05;101738.78;;;-5.18
24586;BMP280;12743;52.262;6.172;2022-12-18T07:03:33;101733.16;;;-5.35
24586;BMP280;12743;52.262;6.172;2022-12-18T07:05:59;101747.59;;;-5.27
24586;BMP280;12743;52.262;6.172;2022-12-18T07:08:26;101728.88;;;-5.28
24586;BMP280;12743;52.262;6.172;2022-12-18T07:10:52;101743.59;;;-5.30
24586;BMP280;12743;52.262;6.172;2022-12-18T07:13:22;101742.81;;;-5.30
24586;BMP280;12743;52.262;6.172;2022-12-18T07:15:48;101731.75;;;-5.37
24586;BMP280;12743;52.262;6.172;2022-12-18T07:18:15;101736.00;;;-5.23
24586;BMP280;12743;52.262;6.172;2022-12-18T07:20:41;101723.47;;;-5.40
24586;BMP280;12743;52.262;6.172;2022-12-18T07:23:08;101745.59;;;-5.25
24586;BMP280;12743;52.262;6.172;2022-12-18T07:25:35;101748.09;;;-5.38
24586;BMP280;12743;52.262;6.172;2022-12-18T07:28:03;101720.03;;;-5.47
24586;BMP280;12743;52.262;6.172;2022-12-18T07:30:30;101742.69;;;-5.44
24586;BMP280;12743;52.262;6.172;2022-12-18T07:32:57;101727.22;;;-5.35
24586;BMP280;12743;52.262;6.172;2022-12-18T07:35:23;101743.38;;;-5.35
24586;BMP280;12743;52.262;6.172;2022-12-18T07:37:50;101743.75;;;-5.38
24586;BMP280;12743;52.262;6.172;2022-12-18T07:40:17;101755.00;;;-5.54
24586;BMP280;12743;52.262;6.172;2022-12-18T07:42:44;101743.56;;;-5.58
24586;BMP280;12743;52.262;6.172;2022-12-18T07:45:10;101747.03;;;-5.44
24586;BMP280;12743;52.262;6.172;2022-12-18T07:47:37;101691.97;;;-5.82
24586;BMP280;12743;52.262;6.172;2022-12-18T07:50:04;101760.69;;;-5.37
24586;BMP280;12743;52.262;6.172;2022-12-18T07:52:31;101752.13;;;-5.51
24586;BMP280;12743;52.262;6.172;2022-12-18T07:54:58;101763.47;;;-5.53
24586;BMP280;12743;52.262;6.172;2022-12-18T07:57:25;101753.06;;;-5.52
24586;BMP280;12743;52.262;6.172;2022-12-18T08:00:12;101726.56;;;-5.44
24586;BMP280;12743;52.262;6.172;2022-12-18T08:02:38;101699.59;;;-5.68
24586;BMP280;12743;52.262;6.172;2022-12-18T08:05:05;101728.47;;;-5.53
24586;BMP280;12743;52.262;6.172;2022-12-18T08:07:32;101699.31;;;-5.73
24586;BMP280;12743;52.262;6.172;2022-12-18T08:09:58;101712.19;;;-5.45
24586;BMP280;12743;52.262;6.172;2022-12-18T08:12:25;101711.94;;;-5.50
24586;BMP280;12743;52.262;6.172;2022-12-18T08:14:51;101703.75;;;-5.60
24586;BMP280;12743;52.262;6.172;2022-12-18T08:17:19;101707.09;;;-5.60
24586;BMP280;12743;52.262;6.172;2022-12-18T08:19:46;101666.00;;;-5.79
24586;BMP280;12743;52.262;6.172;2022-12-18T08:22:12;101704.56;;;-5.60
24586;BMP280;12743;52.262;6.172;2022-12-18T08:24:39;101703.13;;;-5.48
24586;BMP280;12743;52.262;6.172;2022-12-18T08:27:05;101716.53;;;-5.60
24586;BMP280;12743;52.262;6.172;2022-12-18T08:29:52;101713.53;;;-5.49
24586;BMP280;12743;52.262;6.172;2022-12-18T08:32:18;101719.19;;;-5.54
24586;BMP280;12743;52.262;6.172;2022-12-18T08:34:45;101724.50;;;-5.55
24586;BMP280;12743;52.262;6.172;2022-12-18T08:37:12;101669.53;;;-5.38
24586;BMP280;12743;52.262;6.172;2022-12-18T08:39:38;101698.41;;;-5.44
24586;BMP280;12743;52.262;6.172;2022-12-18T08:42:05;101710.28;;;-5.36
24586;BMP280;12743;52.262;6.172;2022-12-18T08:44:50;101688.59;;;-5.41
24586;BMP280;12743;52.262;6.172;2022-12-18T08:47:16;101694.34;;;-5.38
24586;BMP280;12743;52.262;6.172;2022-12-18T08:49:43;101703.22;;;-5.34
24586;BMP280;12743;52.262;6.172;2022-12-18T08:52:09;101706.75;;;-5.35
24586;BMP280;12743;52.262;6.172;2022-12-18T08:54:36;101713.88;;;-5.31
24586;BMP280;12743;52.262;6.172;2022-12-18T08:57:03;101715.50;;;-5.23
24586;BMP280;12743;52.262;6.172;2022-12-18T08:59:29;101711.81;;;-5.21
24586;BMP280;12743;52.262;6.172;2022-12-18T09:01:56;101702.25;;;-5.27
24586;BMP280;12743;52.262;6.172;2022-12-18T09:04:22;101716.16;;;-5.15
24586;BMP280;12743;52.262;6.172;2022-12-18T09:06:49;101712.81;;;-5.15
24586;BMP280;12743;52.262;6.172;2022-12-18T09:09:15;101710.81;;;-5.20
24586;BMP280;12743;52.262;6.172;2022-12-18T09:11:42;101709.84;;;-5.19
24586;BMP280;12743;52.262;6.172;2022-12-18T09:14:09;101696.28;;;-5.13
24586;BMP280;12743;52.262;6.172;2022-12-18T09:16:36;101719.78;;;-5.03
24586;BMP280;12743;52.262;6.172;2022-12-18T09:19:04;101705.84;;;-4.94
24586;BMP280;12743;52.262;6.172;2022-12-18T09:21:33;101715.50;;;-4.96
24586;BMP280;12743;52.262;6.172;2022-12-18T09:24:03;101699.25;;;-4.81
24586;BMP280;12743;52.262;6.172;2022-12-18T09:26:32;101686.16;;;-4.93
24586;BMP280;12743;52.262;6.172;2022-12-18T09:28:58;101684.66;;;-4.81
24586;BMP280;12743;52.262;6.172;2022-12-18T09:31:25;101690.56;;;-4.80
24586;BMP280;12743;52.262;6.172;2022-12-18T09:33:51;101694.53;;;-4.78
24586;BMP280;12743;52.262;6.172;2022-12-18T09:36:18;101715.09;;;-4.71
24586;BMP280;12743;52.262;6.172;2022-12-18T09:38:45;101710.38;;;-4.61
24586;BMP280;12743;52.262;6.172;2022-12-18T09:43:57;101718.31;;;-4.50
24586;BMP280;12743;52.262;6.172;2022-12-18T09:46:58;101719.53;;;-4.46
24586;BMP280;12743;52.262;6.172;2022-12-18T09:49:29;101714.00;;;-4.42
24586;BMP280;12743;52.262;6.172;2022-12-18T09:52:05;101707.13;;;-4.35
24586;BMP280;12743;52.262;6.172;2022-12-18T09:54:46;101701.44;;;-4.31
24586;BMP280;12743;52.262;6.172;2022-12-18T09:57:18;101693.16;;;-4.33
24586;BMP280;12743;52.262;6.172;2022-12-18T09:59:50;101684.25;;;-4.37
24586;BMP280;12743;52.262;6.172;2022-12-18T10:02:20;101692.38;;;-4.27
24586;BMP280;12743;52.262;6.172;2022-12-18T10:05:03;101693.56;;;-4.16
24586;BMP280;12743;52.262;6.172;2022-12-18T10:07:52;101690.47;;;-4.12
24586;BMP280;12743;52.262;6.172;2022-12-18T10:10:32;101674.88;;;-4.10
24586;BMP280;12743;52.262;6.172;2022-12-18T10:13:16;101658.69;;;-3.98
24586;BMP280;12743;52.262;6.172;2022-12-18T10:21:39;101654.38;;;-3.84
24586;BMP280;12743;52.262;6.172;2022-12-18T10:24:27;101651.81;;;-3.71
24586;BMP280;12743;52.262;6.172;2022-12-18T10:27:12;101650.44;;;-3.67
24586;BMP280;12743;52.262;6.172;2022-12-18T10:29:41;101640.38;;;-3.62
24586;BMP280;12743;52.262;6.172;2022-12-18T10:32:14;101652.97;;;-3.47
24586;BMP280;12743;52.262;6.172;2022-12-18T10:34:45;101665.63;;;-3.39
24586;BMP280;12743;52.262;6.172;2022-12-18T10:37:16;101669.56;;;-3.36
24586;BMP280;12743;52.262;6.172;2022-12-18T10:39:43;101695.22;;;-3.30
24586;BMP280;12743;52.262;6.172;2022-12-18T10:42:19;101704.13;;;-3.32
24586;BMP280;12743;52.262;6.172;2022-12-18T10:45:01;101709.25;;;-3.26
24586;BMP280;12743;52.262;6.172;2022-12-18T10:47:28;101721.09;;;-3.25
24586;BMP280;12743;52.262;6.172;2022-12-18T10:49:54;101721.09;;;-3.18
24586;BMP280;12743;52.262;6.172;2022-12-18T10:52:23;101697.00;;;-3.17
24586;BMP280;12743;52.262;6.172;2022-12-18T10:55:02;101693.22;;;-3.15
24586;BMP280;12743;52.262;6.172;2022-12-18T10:57:38;101685.91;;;-3.11
24586;BMP280;12743;52.262;6.172;2022-12-18T11:02:51;101683.13;;;-3.03
24586;BMP280;12743;52.262;6.172;2022-12-18T11:05:33;101691.22;;;-2.99
24586;BMP280;12743;52.262;6.172;2022-12-18T11:08:00;101697.97;;;-2.92
24586;BMP280;12743;52.262;6.172;2022-12-18T11:10:32;101712.16;;;-2.83
24586;BMP280;12743;52.262;6.172;2022-12-18T11:13:14;101699.09;;;-2.88
24586;BMP280;12743;52.262;6.172;2022-12-18T11:15:43;101717.28;;;-2.83
24586;BMP280;12743;52.262;6.172;2022-12-18T11:20:54;101702.28;;;-2.86
24586;BMP280;12743;52.262;6.172;2022-12-18T11:23:24;101717.25;;;-2.76
24586;BMP280;12743;52.262;6.172;2022-12-18T11:25:57;101702.41;;;-2.74
24586;BMP280;12743;52.262;6.172;2022-12-18T11:31:20;101681.44;;;-2.71
24586;BMP280;12743;52.262;6.172;2022-12-18T11:33:58;101666.22;;;-2.73
24586;BMP280;12743;52.262;6.172;2022-12-18T11:36:47;101640.00;;;-2.94
24586;BMP280;12743;52.262;6.172;2022-12-18T11:39:23;101675.28;;;-2.64
24586;BMP280;12743;52.262;6.172;2022-12-18T11:41:57;101661.44;;;-2.63
24586;BMP280;12743;52.262;6.172;2022-12-18T11:44:40;101659.69;;;-2.62
24586;BMP280;12743;52.262;6.172;2022-12-18T11:50:15;101652.50;;;-2.54
24586;BMP280;12743;52.262;6.172;2022-12-18T11:52:42;101623.09;;;-2.71
24586;BMP280;12743;52.262;6.172;2022-12-18T11:55:13;101648.88;;;-2.39
24586;BMP280;12743;52.262;6.172;2022-12-18T11:58:10;101652.84;;;-2.43
24586;BMP280;12743;52.262;6.172;2022-12-18T12:00:47;101650.25;;;-2.43
24586;BMP280;12743;52.262;6.172;2022-12-18T12:03:24;101665.84;;;-2.38
24586;BMP280;12743;52.262;6.172;2022-12-18T12:06:08;101653.41;;;-2.41
24586;BMP280;12743;52.262;6.172;2022-12-18T12:14:40;101628.00;;;-2.31
24586;BMP280;12743;52.262;6.172;2022-12-18T12:17:38;101622.28;;;-2.27
24586;BMP280;12743;52.262;6.172;2022-12-18T12:20:21;101621.84;;;-2.24
24586;BMP280;12743;52.262;6.172;2022-12-18T12:25:35;101612.19;;;-2.28
24586;BMP280;12743;52.262;6.172;2022-12-18T12:36:13;101623.38;;;-2.16
24586;BMP280;12743;52.262;6.172;2022-12-18T12:38:51;101635.41;;;-2.10
24586;BMP280;12743;52.262;6.172;2022-12-18T12:41:24;101634.56;;;-2.04
24586;BMP280;12743;52.262;6.172;2022-12-18T12:44:17;101642.50;;;-2.06
24586;BMP280;12743;52.262;6.172;2022-12-18T12:46:46;101622.13;;;-2.07
24586;BMP280;12743;52.262;6.172;2022-12-18T12:49:17;101635.72;;;-2.00
24586;BMP280;12743;52.262;6.172;2022-12-18T12:51:57;101641.00;;;-1.95
24586;BMP280;12743;52.262;6.172;2022-12-18T12:54:25;101593.38;;;-2.29
24586;BMP280;12743;52.262;6.172;2022-12-18T12:57:16;101626.59;;;-1.96
24586;BMP280;12743;52.262;6.172;2022-12-18T13:00:04;101626.16;;;-1.93
24586;BMP280;12743;52.262;6.172;2022-12-18T13:05:34;101590.19;;;-1.99
24586;BMP280;12743;52.262;6.172;2022-12-18T13:08:08;101606.69;;;-1.89
24586;BMP280;12743;52.262;6.172;2022-12-18T13:10:39;101599.56;;;-1.87
24586;BMP280;12743;52.262;6.172;2022-12-18T13:13:11;101601.00;;;-1.91
24586;BMP280;12743;52.262;6.172;2022-12-18T13:16:06;101598.78;;;-1.87
24586;BMP280;12743;52.262;6.172;2022-12-18T13:18:34;101602.94;;;-1.86
24586;BMP280;12743;52.262;6.172;2022-12-18T13:23:36;101611.06;;;-1.83
24586;BMP280;12743;52.262;6.172;2022-12-18T13:31:00;101571.31;;;-1.93
24586;BMP280;12743;52.262;6.172;2022-12-18T13:33:41;101562.38;;;-1.91
24586;BMP280;12743;52.262;6.172;2022-12-18T13:36:31;101565.28;;;-1.81
24586;BMP280;12743;52.262;6.172;2022-12-18T13:44:37;101592.72;;;-1.75
24586;BMP280;12743;52.262;6.172;2022-12-18T13:49:52;101595.03;;;-1.67
24586;BMP280;12743;52.262;6.172;2022-12-18T13:52:22;101583.59;;;-1.71
24586;BMP280;12743;52.262;6.172;2022-12-18T13:54:53;101579.34;;;-1.65
24586;BMP280;12743;52.262;6.172;2022-12-18T13:57:35;101572.28;;;-1.70
24586;BMP280;12743;52.262;6.172;2022-12-18T14:02:48;101550.75;;;-1.75
24586;BMP280;12743;52.262;6.172;2022-12-18T14:08:01;101557.19;;;-1.66
24586;BMP280;12743;52.262;6.172;2022-12-18T14:10:32;101553.03;;;-1.67
24586;BMP280;12743;52.262;6.172;2022-12-18T14:13:28;101550.25;;;-1.66
24586;BMP280;12743;52.262;6.172;2022-12-18T14:15:56;101551.81;;;-1.65
24586;BMP280;12743;52.262;6.172;2022-12-18T14:18:28;101550.03;;;-1.64
24586;BMP280;12743;52.262;6.172;2022-12-18T14:20:58;101546.66;;;-1.65
24586;BMP280;12743;52.262;6.172;2022-12-18T14:23:30;101556.53;;;-1.62
24586;BMP280;12743;52.262;6.172;2022-12-18T14:25:57;101547.47;;;-1.64
24586;BMP280;12743;52.262;6.172;2022-12-18T14:28:31;101534.78;;;-1.66
24586;BMP280;12743;52.262;6.172;2022-12-18T14:30:57;101517.00;;;-1.67
24586;BMP280;12743;52.262;6.172;2022-12-18T14:33:27;101515.78;;;-1.65
24586;BMP280;12743;52.262;6.172;2022-12-18T14:38:34;101508.41;;;-1.61
24586;BMP280;12743;52.262;6.172;2022-12-18T14:41:04;101514.09;;;-1.59
24586;BMP280;12743;52.262;6.172;2022-12-18T14:43:35;101497.91;;;-1.60
24586;BMP280;12743;52.262;6.172;2022-12-18T14:46:05;101477.22;;;-1.71
24586;BMP280;12743;52.262;6.172;2022-12-18T14:48:40;101484.00;;;-1.59
24586;BMP280;12743;52.262;6.172;2022-12-18T14:51:30;101474.13;;;-1.62
24586;BMP280;12743;52.262;6.172;2022-12-18T14:54:02;101475.28;;;-1.58
24586;BMP280;12743;52.262;6.172;2022-12-18T14:56:32;101473.69;;;-1.59
24586;BMP280;12743;52.262;6.172;2022-12-18T14:59:05;101471.69;;;-1.57
24586;BMP280;12743;52.262;6.172;2022-12-18T15:01:45;101469.69;;;-1.55
24586;BMP280;12743;52.262;6.172;2022-12-18T15:04:28;101455.22;;;-1.56
24586;BMP280;12743;52.262;6.172;2022-12-18T15:07:14;101462.53;;;-1.52
24586;BMP280;12743;52.262;6.172;2022-12-18T15:10:04;101438.88;;;-1.61
24586;BMP280;12743;52.262;6.172;2022-12-18T15:12:41;101440.00;;;-1.57
24586;BMP280;12743;52.262;6.172;2022-12-18T15:18:01;101447.66;;;-1.50
24586;BMP280;12743;52.262;6.172;2022-12-18T15:20:31;101433.78;;;-1.49
24586;BMP280;12743;52.262;6.172;2022-12-18T15:22:58;101456.94;;;-1.49
24586;BMP280;12743;52.262;6.172;2022-12-18T15:25:32;101460.19;;;-1.42
24586;BMP280;12743;52.262;6.172;2022-12-18T15:28:00;101481.94;;;-1.38
24586;BMP280;12743;52.262;6.172;2022-12-18T15:30:26;101457.06;;;-1.44
24586;BMP280;12743;52.262;6.172;2022-12-18T15:33:16;101454.06;;;-1.41
24586;BMP280;12743;52.262;6.172;2022-12-18T15:35:43;101483.72;;;-1.39
24586;BMP280;12743;52.262;6.172;2022-12-18T15:38:12;101489.41;;;-1.30
24586;BMP280;12743;52.262;6.172;2022-12-18T15:40:39;101466.63;;;-1.33